Terminal Aerodrome Forecast
Issued by NWS Des Moines, IA

Home | Current Version | Previous Version | Text Only | Print | Product List | Glossary On
Versions: 1 2 3 4 5 6 7 8 9 10 11 12 13 14 15
000
FTUS43 KDMX 252114 AAA
TAFDSM
TAF AMD
KDSM 252114Z 2521/2618 01011G17KT P6SM FEW150
     FM260000 VRB03KT P6SM SKC
     FM261500 11006KT P6SM FEW150=

USA.gov is the U.S. government's official web portal to all federal, state and local government web resources and services.